OMDBVNKT

Guest
Details From OMDB - Dubai Intl
To VNKT - Kathmandu Tribhuvan Intl
Flight Number -
Tags Generated
Created
Modified
Stats Distance 1,619 nm / 2,999 km
Max Altitude 0 ft / 0 m
Waypoints 8
Social Downloads 1
Likes 0
Share VATSIM

Download

Looking for another format? Having issues loading an existing format? Contact us
Advertisement - Login to hide

Notes

Generated

Route

OMDB IMLOT PG MJ REBON HARRE KTM56 VNKT

ID Type Via Altitude Latitude Longitude Leg Dist Tot Dist Heading (true) Name
O OMDB APT - 0 ft / 0 m 25.26213˚ 55.34757˚ - 0 nm - -
IMLOT FIX - 0 ft / 0 m 25.28556˚ 57.13444˚ 97 nm 97 nm 89° / 90° -
PG NDB - 0 ft / 0 m 26.95618˚ 64.13831˚ 390 nm 487 nm 74° / 77° PANJGUR NDB
MJ NDB - 0 ft / 0 m 27.33097˚ 68.14105˚ 215 nm 702 nm 83° / 85° MOENJODARO NDB
REBON FIX - 0 ft / 0 m 27.80019˚ 76.52239˚ 447 nm 1149 nm 84° / 88° -
HARRE FIX - 0 ft / 0 m 27.72242˚ 82.99794˚ 344 nm 1494 nm 89° / 92° -
KTM56 FIX - 0 ft / 0 m 27.68390˚ 85.35196˚ 125 nm 1619 nm 91° / 92° -
O VNKT APT - 0 ft / 0 m 27.68381˚ 85.35342˚ 0 nm 1619 nm 94° / 94° -

Altitude Profile

Advertisement - Login to hide

Weather


0- 5 10 15 20 25 30 35+ Temperature / ° C

Clouds and Precipitation
Forecast for 2017-12-14 18:00 UTC. Updated 28 minutes ago

Ground ~20,000 ft ~40,000 ft Winds

OMDB

Details ICAO OMDB (DXB)
Name DUBAI INTL
Region United Arab Emirates
Timezone Asia/Dubai (UTC+4.0)
Stats Elevation 62 ft / 19 m (AMSL)
Location 25.254912° 55.364260°
Runways 2
Magnetic Variation 2.047° E

METAR

OMDB 141300Z 36010KT 9999 BKN045 25/13 Q1016 NOSIG

Decode

TAF

TAF OMDB 141056Z 1412/1518 35010KT 8000 SCT040 BECMG 1414/1416 14012KT PROB40 1510/1514 36010KT

Decode

Departure Runways

ID Width Length Bearing (true) Bearing (mag) Surface Threshold Offset Overrun Length
12L 197 ft / 60 m 13,124 ft / 4,000 m 121.49° 119.44° Asphalt 1,312 ft / 400 m 395 ft / 120 m
12R 151 ft / 46 m 13,139 ft / 4,005 m 121.48° 119.43° Asphalt 394 ft / 120 m 197 ft / 60 m
30L 151 ft / 46 m 13,139 ft / 4,005 m 301.50° 299.45° Asphalt 2,953 ft / 900 m 197 ft / 60 m
30R 197 ft / 60 m 13,124 ft / 4,000 m 301.51° 299.46° Asphalt 0 ft / 0 m 395 ft / 120 m

VNKT

Details ICAO VNKT (KTM)
Name Kathmandu Tribhuvan Intl
Region Nepal
Timezone Asia/Kathmandu (UTC+5.8)
Stats Elevation 4,390 ft / 1,338 m (AMSL)
Location 27.696583° 85.359100°
Runways 1
Magnetic Variation 0.492° E

METAR

VNKT 141320Z 09004KT 7000 FEW020 13/05 Q1020 NOSIG

Decode

TAF

TAF VNKT 141100Z 1412/1512 28005KT 8000 FEW020 BECMG 1414/1415 VRB02KT 6000 FEW015 BECMG 1500/1502 3000 BR FEW010 PROB30 1501/1503 2000 BR BECMG 1504/1505 13005KT 5000 HZ FEW015 BECMG 1507/1508 29008KT 8000 FEW020

Decode

Destination Runways

ID Width Length Bearing (true) Bearing (mag) Surface Threshold Offset Overrun Length
02 148 ft / 45 m 10,017 ft / 3,053 m 21.50° 21.01° Asphalt 0 ft / 0 m 0 ft / 0 m
20 148 ft / 45 m 10,017 ft / 3,053 m 201.51° 201.02° Asphalt 400 ft / 122 m 0 ft / 0 m

Popular Alternatives